Main page
METAR-TAF:

Airports :

Dortmund, Germany

Dortmund Airport

latitude: 51-31N, longitude: 007-37E, elevation: 127 m

Current weather observation

The report was made 5 hours and 44 minutes ago, at 21:50 UTC
Wind 13 kt from the South
Temperature 10°C
Humidity 62%
Pressure 1002 hPa
Visibility 10 km or more
no clouds below 1500 m and no cumulonimbus

METAR: EDLW 062150Z 19013KT CAVOK 10/03 Q1002

Time: 04:34 (03:34 UTC)

Forecast

The report was made 10 hours and 34 minutes ago, at 17:00 UTC
Forecast valid from 06 at 18 UTC to 07 at 18 UTC
Wind 12 kt from the South
Visibility 10 km or more
no clouds below 1500 m and no cumulonimbus
Becoming
from 07 at 07 UTC to 07 at 10 UTC
Wind 15 kt from the South/Southwest with gusts up to 25 kt

TAF: EDLW 061700Z 0618/0718 18012KT CAVOK BECMG 0707/0710 21015G25KT

METAR-TAF

Weather observations and forecasts of more than 4000 airports (METAR and TAF reports).

The available stations are represented by yellow and red dots on the map.

Hover mouse over dot to see the name of the station.

Then click to see weather observations and forecasts.

To change the map : click on the green buttons with a black cross to zoom in, on the green button with a dash to zoom out, or on the green arrows for adjacent maps.


METAR-TAF: